createdAt,value
2018-11-14T00:03:11.701Z,8.03
2018-11-14T00:07:17.005Z,7.99
2018-11-14T00:11:37.940Z,7.96
2018-11-14T00:15:41.930Z,7.93
2018-11-14T00:19:46.192Z,7.88
2018-11-14T00:23:50.436Z,7.80
2018-11-14T00:27:54.939Z,7.74
2018-11-14T00:31:59.016Z,7.69
2018-11-14T00:36:03.318Z,7.69
2018-11-14T00:40:09.665Z,7.67
2018-11-14T00:44:14.005Z,7.67
2018-11-14T00:48:18.144Z,7.67
2018-11-14T00:52:22.648Z,7.66
2018-11-14T00:56:26.636Z,7.63
2018-11-14T01:00:30.720Z,7.64
2018-11-14T01:04:35.147Z,7.64
2018-11-14T01:08:39.511Z,7.64
2018-11-14T01:12:44.924Z,7.64
2018-11-14T01:16:49.689Z,7.61
2018-11-14T01:20:53.870Z,7.54
2018-11-14T01:24:58.520Z,7.48
2018-11-14T01:29:03.054Z,7.43
2018-11-14T01:33:07.451Z,7.36
2018-11-14T01:37:11.995Z,7.28
2018-11-14T01:41:16.169Z,7.25
2018-11-14T01:45:20.721Z,7.24
2018-11-14T01:49:25.122Z,7.22
2018-11-14T01:53:29.272Z,7.19
2018-11-14T01:57:33.483Z,7.16
2018-11-14T02:01:37.773Z,7.13
2018-11-14T02:05:42.188Z,7.10
2018-11-14T02:09:46.773Z,7.12
2018-11-14T02:13:50.982Z,7.10
2018-11-14T02:17:55.252Z,7.10
2018-11-14T02:21:59.638Z,7.10
2018-11-14T02:26:03.918Z,7.11
2018-11-14T02:30:10.496Z,7.12
2018-11-14T02:34:14.612Z,7.11
2018-11-14T02:38:19.318Z,7.07
2018-11-14T02:42:23.901Z,7.02
2018-11-14T02:46:28.630Z,6.95
2018-11-14T02:50:32.850Z,7.01
2018-11-14T02:54:37.267Z,7.02
2018-11-14T02:58:41.571Z,6.95
2018-11-14T03:02:45.964Z,6.88
2018-11-14T03:06:50.127Z,6.80
2018-11-14T03:10:54.442Z,6.74
2018-11-14T03:14:58.844Z,6.70
2018-11-14T03:19:02.976Z,6.67
2018-11-14T03:23:07.404Z,6.64
2018-11-14T03:27:12.103Z,6.61
2018-11-14T03:31:16.482Z,6.56
2018-11-14T03:35:20.772Z,6.70
2018-11-14T03:39:25.140Z,6.72
2018-11-14T03:43:29.329Z,6.68
2018-11-14T03:47:33.708Z,6.62
2018-11-14T03:51:38.090Z,6.55
2018-11-14T03:55:42.390Z,6.56
2018-11-14T03:59:46.703Z,6.54
2018-11-14T04:03:51.741Z,6.48
2018-11-14T04:07:56.073Z,6.45
2018-11-14T04:12:00.302Z,6.41
2018-11-14T04:16:05.791Z,6.37
2018-11-14T04:20:12.285Z,6.35
2018-11-14T04:24:16.859Z,6.34
2018-11-14T04:28:20.965Z,6.29
2018-11-14T04:32:25.805Z,6.27
2018-11-14T04:36:29.993Z,6.24
2018-11-14T04:40:34.295Z,6.24
2018-11-14T04:44:38.406Z,6.23
2018-11-14T04:48:42.933Z,6.21
2018-11-14T04:52:48.040Z,6.19
2018-11-14T04:56:52.231Z,6.17
2018-11-14T05:00:56.377Z,6.13
2018-11-14T05:05:00.556Z,6.10
2018-11-14T05:09:09.040Z,6.08
2018-11-14T05:13:13.304Z,6.12
2018-11-14T05:17:17.641Z,6.13
2018-11-14T05:21:21.846Z,6.10
2018-11-14T05:25:26.780Z,6.07
2018-11-14T05:29:30.982Z,6.07
2018-11-14T05:33:35.241Z,6.03
2018-11-14T05:37:39.882Z,6.01
2018-11-14T05:41:44.594Z,5.96
2018-11-14T05:45:49.038Z,5.88
2018-11-14T05:49:53.221Z,5.83
2018-11-14T05:53:57.397Z,5.84
2018-11-14T05:58:01.691Z,5.79
2018-11-14T06:02:05.931Z,5.74
2018-11-14T06:06:10.645Z,5.72
2018-11-14T06:10:14.894Z,5.71
2018-11-14T06:14:18.998Z,5.69
2018-11-14T06:18:23.142Z,5.64
2018-11-14T06:22:27.442Z,5.63
2018-11-14T06:26:31.618Z,5.59
2018-11-14T06:30:37.020Z,5.58
2018-11-14T06:34:41.285Z,5.53
2018-11-14T06:38:46.088Z,5.53
2018-11-14T06:42:50.433Z,5.49
2018-11-14T06:46:55.295Z,5.45
2018-11-14T06:50:59.793Z,5.46
2018-11-14T06:55:06.418Z,5.47
2018-11-14T06:59:10.762Z,5.49
2018-11-14T07:03:15.077Z,5.54
2018-11-14T07:07:19.828Z,5.56
2018-11-14T07:11:24.202Z,5.59
2018-11-14T07:15:29.052Z,5.65
2018-11-14T07:19:33.400Z,5.67
2018-11-14T07:23:37.876Z,5.66
2018-11-14T07:27:42.286Z,5.59
2018-11-14T07:31:46.378Z,5.48
2018-11-14T07:35:50.564Z,5.52
2018-11-14T07:39:54.929Z,5.61
2018-11-14T07:43:59.328Z,5.67
2018-11-14T07:48:03.693Z,5.74
2018-11-14T07:52:07.855Z,5.74
2018-11-14T07:56:12.636Z,5.84
2018-11-14T08:00:17.969Z,5.90
2018-11-14T08:04:22.203Z,5.99
2018-11-14T08:08:26.413Z,6.20
2018-11-14T08:12:30.483Z,6.31
2018-11-14T08:16:34.520Z,6.44
2018-11-14T08:20:38.650Z,6.53
2018-11-14T08:24:42.681Z,6.81
2018-11-14T08:28:46.988Z,7.05
2018-11-14T08:32:51.345Z,7.32
2018-11-14T08:36:55.634Z,7.36
2018-11-14T08:40:59.958Z,7.51
2018-11-14T08:45:06.691Z,7.66
2018-11-14T08:49:11.377Z,7.72
2018-11-14T08:53:15.509Z,8.04
2018-11-14T08:57:20.219Z,8.25
2018-11-14T09:01:25.110Z,8.36
2018-11-14T09:05:30.373Z,8.67
2018-11-14T09:09:35.007Z,9.32
2018-11-14T09:13:39.386Z,10.37
2018-11-14T09:17:43.806Z,11.23
2018-11-14T09:21:48.374Z,12.03
2018-11-14T09:25:53.708Z,12.60
2018-11-14T09:29:58.213Z,13.22
2018-11-14T09:34:02.995Z,13.61
2018-11-14T09:38:07.325Z,13.84
2018-11-14T09:42:11.778Z,13.74
2018-11-14T09:46:15.918Z,14.21
2018-11-14T09:50:24.464Z,14.35
2018-11-14T09:54:29.228Z,15.16
2018-11-14T09:58:33.829Z,14.95
2018-11-14T10:02:38.251Z,15.58
2018-11-14T10:06:43.254Z,15.04
2018-11-14T10:10:47.480Z,15.55
2018-11-14T10:14:51.722Z,16.01
2018-11-14T10:18:56.018Z,16.51
2018-11-14T10:23:00.309Z,16.91
2018-11-14T10:27:05.304Z,17.36
2018-11-14T10:31:09.662Z,17.00
2018-11-14T10:35:14.280Z,17.37
2018-11-14T10:39:18.566Z,17.33
2018-11-14T10:43:22.828Z,17.08
2018-11-14T10:47:27.248Z,17.75
2018-11-14T10:51:31.564Z,17.39
2018-11-14T10:55:35.729Z,17.59
2018-11-14T10:59:40.416Z,17.95
2018-11-14T11:04:49.544Z,18.55
2018-11-14T11:08:59.047Z,18.55
2018-11-14T11:14:12.534Z,18.50
2018-11-14T11:18:17.743Z,18.37
2018-11-14T11:22:22.023Z,19.17
2018-11-14T11:26:26.588Z,18.53
2018-11-14T11:30:31.262Z,19.52
2018-11-14T11:34:35.789Z,20.25
2018-11-14T11:38:40.045Z,20.46
2018-11-14T11:42:44.621Z,20.24
2018-11-14T11:46:48.883Z,20.30
2018-11-14T11:50:53.592Z,20.51
2018-11-14T11:54:58.703Z,19.88
2018-11-14T11:59:02.792Z,20.24
2018-11-14T12:03:07.768Z,19.81
2018-11-14T12:07:12.044Z,19.66
2018-11-14T12:11:16.355Z,20.13
2018-11-14T12:15:20.947Z,20.59
2018-11-14T12:19:25.284Z,21.80
2018-11-14T12:23:30.369Z,21.22
2018-11-14T12:27:35.307Z,20.74
2018-11-14T12:31:39.748Z,20.98
2018-11-14T12:35:44.919Z,21.40
2018-11-14T12:39:49.979Z,20.84
2018-11-14T12:43:54.672Z,20.85
2018-11-14T12:47:58.943Z,21.11
2018-11-14T12:52:03.992Z,20.97
2018-11-14T12:56:08.569Z,21.29
2018-11-14T13:00:14.537Z,21.06
2018-11-14T13:04:19.178Z,21.41
2018-11-14T13:08:23.443Z,22.18
2018-11-14T13:12:27.981Z,20.62
2018-11-14T13:16:32.273Z,20.95
2018-11-14T13:20:36.663Z,21.36
2018-11-14T13:24:40.879Z,21.78
2018-11-14T13:28:45.315Z,21.80
2018-11-14T13:32:50.481Z,21.23
2018-11-14T13:36:55.070Z,19.97
2018-11-14T13:40:59.416Z,19.69
2018-11-14T13:45:03.523Z,20.11
2018-11-14T13:49:08.046Z,19.90
2018-11-14T13:53:11.906Z,19.17
2018-11-14T13:57:15.899Z,17.83
2018-11-14T14:01:19.968Z,17.29
2018-11-14T14:05:25.032Z,16.80
2018-11-14T14:09:29.090Z,16.41
2018-11-14T14:13:33.520Z,16.01
2018-11-14T14:17:37.876Z,15.73
2018-11-14T14:21:42.257Z,15.57
2018-11-14T14:25:46.209Z,15.52
2018-11-14T14:29:50.243Z,15.11
2018-11-14T14:33:54.152Z,14.85
2018-11-14T14:37:58.136Z,14.69
2018-11-14T14:42:02.320Z,14.59
2018-11-14T14:46:06.841Z,14.42
2018-11-14T14:50:13.773Z,14.45
2018-11-14T14:54:17.869Z,14.47
2018-11-14T14:58:21.881Z,14.48
2018-11-14T15:02:25.898Z,14.42
2018-11-14T15:06:29.949Z,14.13
2018-11-14T15:10:34.078Z,14.00
2018-11-14T15:14:38.137Z,13.85
2018-11-14T15:18:42.240Z,13.66
2018-11-14T15:22:46.411Z,13.58
2018-11-14T15:26:50.428Z,13.49
2018-11-14T15:30:54.679Z,13.43
2018-11-14T15:34:58.823Z,13.34
2018-11-14T15:39:03.006Z,13.26
2018-11-14T15:43:07.233Z,13.12
2018-11-14T15:47:11.275Z,13.04
2018-11-14T15:51:15.634Z,12.90
2018-11-14T15:55:20.583Z,12.80
2018-11-14T15:59:24.768Z,12.68
2018-11-14T16:03:28.823Z,12.63
2018-11-14T16:07:32.969Z,12.59
2018-11-14T16:11:37.708Z,12.52
2018-11-14T16:15:41.881Z,12.47
2018-11-14T16:19:45.881Z,12.39
2018-11-14T16:23:50.197Z,12.31
2018-11-14T16:27:55.677Z,12.24
2018-11-14T16:31:59.860Z,12.17
2018-11-14T16:36:04.188Z,12.04
2018-11-14T16:40:10.314Z,11.95
2018-11-14T16:44:14.716Z,11.82
2018-11-14T16:48:19.986Z,11.73
2018-11-14T16:52:24.311Z,11.58
2018-11-14T16:56:28.414Z,11.46
2018-11-14T17:00:32.643Z,11.34
2018-11-14T17:04:36.888Z,11.21
2018-11-14T17:08:40.851Z,11.13
2018-11-14T17:12:46.173Z,11.03
2018-11-14T17:16:50.854Z,10.98
2018-11-14T17:20:54.845Z,10.88
2018-11-14T17:24:58.757Z,10.84
2018-11-14T17:29:04.234Z,10.76
2018-11-14T17:33:08.207Z,10.69
2018-11-14T17:37:12.516Z,10.62
2018-11-14T17:41:16.685Z,10.56
2018-11-14T17:45:24.403Z,10.52
2018-11-14T17:49:28.468Z,10.39
2018-11-14T17:53:32.490Z,10.32
2018-11-14T17:57:37.070Z,10.24
2018-11-14T18:01:43.378Z,10.25
2018-11-14T18:05:48.465Z,10.21
2018-11-14T18:09:52.857Z,10.16
2018-11-14T18:13:57.135Z,10.12
2018-11-14T18:18:01.611Z,10.09
2018-11-14T18:22:06.113Z,10.07
2018-11-14T18:26:10.144Z,10.05
2018-11-14T18:30:17.381Z,9.99
2018-11-14T18:34:21.434Z,9.96
2018-11-14T18:38:26.409Z,9.93
2018-11-14T18:42:30.523Z,9.81
2018-11-14T18:46:34.486Z,9.82
2018-11-14T18:50:38.812Z,9.77
2018-11-14T18:54:43.229Z,9.70
2018-11-14T18:58:47.330Z,9.63
2018-11-14T19:02:51.742Z,9.52
2018-11-14T19:06:55.802Z,9.48
2018-11-14T19:11:00.232Z,9.42
2018-11-14T19:15:06.503Z,9.38
2018-11-14T19:19:10.702Z,9.34
2018-11-14T19:23:14.552Z,9.28
2018-11-14T19:27:18.650Z,9.14
2018-11-14T19:31:22.904Z,9.00
2018-11-14T19:35:26.983Z,8.88
2018-11-14T19:39:31.331Z,8.67
2018-11-14T19:43:35.493Z,8.50
2018-11-14T19:47:40.007Z,8.45
2018-11-14T19:51:44.013Z,8.44
2018-11-14T19:55:48.077Z,8.49
2018-11-14T19:59:52.063Z,8.46
2018-11-14T20:03:56.110Z,8.32
2018-11-14T20:08:00.164Z,8.28
2018-11-14T20:12:04.980Z,8.21
2018-11-14T20:16:09.016Z,8.15
2018-11-14T20:20:15.523Z,8.15
2018-11-14T20:24:19.725Z,8.10
2018-11-14T20:28:23.742Z,8.03
2018-11-14T20:32:27.881Z,8.02
2018-11-14T20:36:31.920Z,7.98
2018-11-14T20:40:38.259Z,7.97
2018-11-14T20:44:42.344Z,8.00
2018-11-14T20:48:47.186Z,7.96
2018-11-14T20:52:52.818Z,7.90
2018-11-14T20:56:57.019Z,7.82
2018-11-14T21:01:01.045Z,7.81
2018-11-14T21:05:06.380Z,7.75
2018-11-14T21:09:11.082Z,7.70
2018-11-14T21:13:15.066Z,7.66
2018-11-14T21:17:19.060Z,7.59
2018-11-14T21:21:23.144Z,7.53
2018-11-14T21:25:27.483Z,7.54
2018-11-14T21:29:31.488Z,7.51
2018-11-14T21:33:35.459Z,7.52
2018-11-14T21:37:39.553Z,7.46
2018-11-14T21:41:44.312Z,7.40
2018-11-14T21:45:48.375Z,7.37
2018-11-14T21:49:52.469Z,7.34
2018-11-14T21:53:56.461Z,7.37
2018-11-14T21:58:00.457Z,7.21
2018-11-14T22:02:05.325Z,7.19
2018-11-14T22:06:09.464Z,7.16
2018-11-14T22:10:17.146Z,7.13
2018-11-14T22:14:21.224Z,7.10
2018-11-14T22:18:25.167Z,7.13
2018-11-14T22:22:29.185Z,7.08
2018-11-14T22:26:33.612Z,7.08
2018-11-14T22:30:37.831Z,7.09
2018-11-14T22:34:42.038Z,7.09
2018-11-14T22:38:46.657Z,7.07
2018-11-14T22:42:51.079Z,7.05
2018-11-14T22:46:55.663Z,7.05
2018-11-14T22:50:59.694Z,6.99
2018-11-14T22:55:05.515Z,6.98
2018-11-14T22:59:09.545Z,6.98
2018-11-14T23:03:15.720Z,6.91
2018-11-14T23:07:19.853Z,6.86
2018-11-14T23:11:24.378Z,6.77
2018-11-14T23:15:28.819Z,6.72
2018-11-14T23:19:33.007Z,6.64
2018-11-14T23:23:37.236Z,6.61
2018-11-14T23:27:43.075Z,6.57
2018-11-14T23:31:47.293Z,6.58
2018-11-14T23:35:51.422Z,6.55
2018-11-14T23:39:55.529Z,6.55
2018-11-14T23:44:04.124Z,6.54
2018-11-14T23:48:08.384Z,6.49
2018-11-14T23:52:13.077Z,6.47
2018-11-14T23:56:17.173Z,6.43
